Time;durP1;ratioP1;P1;durP2;ratioP2;P2;SDS_P1;SDS_P2;PMS_P1;PMS_P2;Temp;Humidity;BMP_temperature;BMP_pressure;BME280_temperature;BME280_humidity;BME280_pressure;Samples;Min_cycle;Max_cycle;Signal;HPM_P1;HPM_P2
2022/03/27 00:00:21;;;;;;;;;;;7.60;99.90;;;;;;5005480;28;19918;-73
2022/03/27 00:02:46;;;;;;;;;;;7.60;99.90;;;;;;5010842;28;19919;-73
2022/03/27 00:05:12;;;;;;;;;;;7.60;99.90;;;;;;5012858;28;20300;-73
2022/03/27 00:07:38;;;;;;;;;;;7.60;99.90;;;;;;5012677;28;19921;-74
2022/03/27 00:10:04;;;;;;;;;;;7.60;99.90;;;;;;5003699;28;19924;-74
2022/03/27 00:12:29;;;;;;;;;;;7.70;99.90;;;;;;5000389;28;19923;-74
2022/03/27 00:14:55;;;;;;;;;;;7.70;99.90;;;;;;5011817;28;20296;-73
2022/03/27 00:17:21;;;;;;;;;;;7.80;99.90;;;;;;5012287;28;19917;-74
2022/03/27 00:19:46;;;;;;;;;;;7.80;99.90;;;;;;4997164;28;19956;-74
2022/03/27 00:22:12;;;;;;;;;;;7.80;99.90;;;;;;5009385;28;19996;-74
2022/03/27 00:24:37;;;;;;;;;;;7.80;99.90;;;;;;4996742;28;19921;-74
2022/03/27 00:27:03;;;;;;;;;;;7.90;99.90;;;;;;5012975;28;19925;-74
2022/03/27 00:29:28;;;;;;;;;;;7.90;99.90;;;;;;5013139;28;19980;-74
2022/03/27 00:31:54;;;;;;;;;;;7.90;99.90;;;;;;5013235;28;20004;-73
2022/03/27 00:34:21;;;;;;;;;;;7.90;99.90;;;;;;5000123;28;19917;-73
2022/03/27 00:36:47;;;;;;;;;;;7.90;99.90;;;;;;4992856;28;19925;-73
2022/03/27 00:39:12;;;;;;;;;;;7.90;99.90;;;;;;5009993;28;20350;-74
2022/03/27 00:41:38;;;;;;;;;;;8.00;99.90;;;;;;5004115;28;19924;-73
2022/03/27 00:44:04;;;;;;;;;;;8.10;99.90;;;;;;4994247;28;19924;-74
2022/03/27 00:46:29;;;;;;;;;;;8.00;99.90;;;;;;5000078;28;19925;-73
2022/03/27 00:48:55;;;;;;;;;;;7.90;99.90;;;;;;4993082;28;19921;-73
2022/03/27 00:51:20;;;;;;;;;;;8.00;99.90;;;;;;5012725;28;19916;-73
2022/03/27 00:53:46;;;;;;;;;;;8.10;99.90;;;;;;5012586;28;19917;-73
2022/03/27 00:56:11;;;;;;;;;;;8.00;99.90;;;;;;5004411;28;19928;-74
2022/03/27 00:58:37;;;;;;;;;;;8.00;99.90;;;;;;4993180;28;19921;-73
2022/03/27 01:01:16;;;;;;;;;;;8.00;99.90;;;;;;4993198;28;19923;-73
2022/03/27 01:03:43;;;;;;;;;;;8.00;99.90;;;;;;4993211;28;19918;-74
2022/03/27 01:06:17;;;;;;;;;;;7.90;99.90;;;;;;4995205;28;20003;-74
2022/03/27 01:11:27;;;;;;;;;;;8.00;99.90;;;;;;4991806;28;19918;-73
2022/03/27 01:13:54;;;;;;;;;;;8.00;99.90;;;;;;4992434;28;19959;-74
2022/03/27 01:16:32;;;;;;;;;;;8.10;99.90;;;;;;4992863;28;19917;-73
2022/03/27 01:19:03;;;;;;;;;;;8.00;99.90;;;;;;4992412;28;19960;-73
2022/03/27 01:21:28;;;;;;;;;;;8.00;99.90;;;;;;4999934;28;19921;-74
2022/03/27 01:23:55;;;;;;;;;;;8.00;99.90;;;;;;5002624;28;20020;-73
2022/03/27 01:26:22;;;;;;;;;;;8.00;99.90;;;;;;4996228;28;19924;-74
2022/03/27 01:28:47;;;;;;;;;;;8.00;99.90;;;;;;4995722;28;20302;-74
2022/03/27 01:31:13;;;;;;;;;;;7.90;99.90;;;;;;5015794;28;19917;-74
2022/03/27 01:33:38;;;;;;;;;;;7.90;99.90;;;;;;5015159;28;20370;-74
2022/03/27 01:36:04;;;;;;;;;;;7.80;99.90;;;;;;5006176;28;19918;-73
2022/03/27 01:38:30;;;;;;;;;;;7.90;99.90;;;;;;5005354;28;19918;-73
2022/03/27 01:40:55;;;;;;;;;;;7.90;99.90;;;;;;5011691;28;19924;-73
2022/03/27 01:43:21;;;;;;;;;;;7.80;99.90;;;;;;5012613;28;20004;-74
2022/03/27 01:45:46;;;;;;;;;;;7.80;99.90;;;;;;5014905;28;19928;-74
2022/03/27 01:48:12;;;;;;;;;;;7.80;99.90;;;;;;5033030;28;19925;-73
2022/03/27 01:50:38;;;;;;;;;;;7.80;99.90;;;;;;5000468;28;19918;-73
2022/03/27 01:53:03;;;;;;;;;;;7.70;99.90;;;;;;4981683;28;19925;-73
2022/03/27 01:55:29;;;;;;;;;;;7.70;99.90;;;;;;4995185;28;19926;-73
2022/03/27 01:57:54;;;;;;;;;;;7.70;99.90;;;;;;5014731;28;19921;-73
2022/03/27 02:00:20;;;;;;;;;;;7.70;99.90;;;;;;5001973;28;19952;-74
2022/03/27 02:02:46;;;;;;;;;;;7.70;99.90;;;;;;5012604;28;19928;-74
2022/03/27 02:05:11;;;;;;;;;;;7.70;99.90;;;;;;5002642;28;20392;-74
2022/03/27 02:07:38;;;;;;;;;;;7.60;99.90;;;;;;5010239;28;19926;-73
2022/03/27 02:10:04;;;;;;;;;;;7.70;99.90;;;;;;5014686;28;19916;-73
2022/03/27 02:12:34;;;;;;;;;;;7.60;99.90;;;;;;5015045;28;19920;-74
2022/03/27 02:14:59;;;;;;;;;;;7.70;99.90;;;;;;5004286;28;19921;-73
2022/03/27 02:17:25;;;;;;;;;;;7.70;99.90;;;;;;4993612;28;20270;-74
2022/03/27 02:19:51;;;;;;;;;;;7.70;99.90;;;;;;4994833;28;19971;-74
2022/03/27 02:22:16;;;;;;;;;;;7.70;99.90;;;;;;4994370;28;20298;-74
2022/03/27 02:24:42;;;;;;;;;;;7.60;99.90;;;;;;5009089;28;19921;-74
2022/03/27 02:27:07;;;;;;;;;;;7.70;99.90;;;;;;4992687;28;20012;-74
2022/03/27 02:29:33;;;;;;;;;;;7.50;99.90;;;;;;5011699;28;19924;-74
2022/03/27 02:31:58;;;;;;;;;;;7.60;99.90;;;;;;5013346;28;19921;-74
2022/03/27 02:34:24;;;;;;;;;;;7.60;99.90;;;;;;5014339;28;19964;-74
2022/03/27 02:36:49;;;;;;;;;;;7.60;99.90;;;;;;5013716;28;19924;-74
2022/03/27 02:39:15;;;;;;;;;;;7.90;99.90;;;;;;5013776;28;19924;-74
2022/03/27 02:41:41;;;;;;;;;;;7.50;99.90;;;;;;5002570;28;20005;-74
2022/03/27 02:44:07;;;;;;;;;;;7.50;99.90;;;;;;5010022;28;19924;-74
2022/03/27 02:46:33;;;;;;;;;;;8.20;99.90;;;;;;4994610;28;20391;-74
2022/03/27 02:48:59;;;;;;;;;;;7.40;99.90;;;;;;5012972;28;20021;-74
2022/03/27 02:51:24;;;;;;;;;;;7.30;99.90;;;;;;5006587;28;19917;-73
2022/03/27 02:53:50;;;;;;;;;;;7.30;99.90;;;;;;5010353;28;19917;-74
2022/03/27 02:56:15;;;;;;;;;;;7.30;99.90;;;;;;5010763;28;20415;-73
2022/03/27 02:58:41;;;;;;;;;;;7.10;99.90;;;;;;4994683;28;19917;-73
2022/03/27 03:01:07;;;;;;;;;;;7.20;99.90;;;;;;5013567;28;19920;-73
2022/03/27 03:03:33;;;;;;;;;;;7.20;99.90;;;;;;5014359;28;19980;-73
2022/03/27 03:05:59;;;;;;;;;;;7.20;99.90;;;;;;5013992;28;19917;-73
2022/03/27 03:08:26;;;;;;;;;;;7.20;99.90;;;;;;5014141;28;20353;-73
2022/03/27 03:10:51;;;;;;;;;;;7.10;99.90;;;;;;5013416;28;19917;-73
2022/03/27 03:13:17;;;;;;;;;;;7.10;99.90;;;;;;5013688;28;19925;-74
2022/03/27 03:15:43;;;;;;;;;;;7.10;99.90;;;;;;5014018;28;19917;-73
2022/03/27 03:18:10;;;;;;;;;;;7.00;99.90;;;;;;5000306;28;20360;-73
2022/03/27 03:20:36;;;;;;;;;;;7.00;99.90;;;;;;5013081;28;19953;-73
2022/03/27 03:23:01;;;;;;;;;;;7.00;99.90;;;;;;5013030;28;20007;-73
2022/03/27 03:25:27;;;;;;;;;;;7.30;99.90;;;;;;5005636;28;19917;-74
2022/03/27 03:27:53;;;;;;;;;;;6.90;99.90;;;;;;5009933;28;20017;-74
2022/03/27 03:30:19;;;;;;;;;;;6.80;99.90;;;;;;5003526;28;20020;-74
2022/03/27 03:32:44;;;;;;;;;;;6.80;99.90;;;;;;4993891;28;20301;-74
2022/03/27 03:35:10;;;;;;;;;;;6.70;99.90;;;;;;4993782;28;19921;-73
2022/03/27 03:37:37;;;;;;;;;;;6.70;99.90;;;;;;5010262;28;19924;-73
2022/03/27 03:40:03;;;;;;;;;;;6.60;99.90;;;;;;4993728;28;19917;-73
2022/03/27 03:42:29;;;;;;;;;;;6.60;99.90;;;;;;5009904;28;19950;-73
2022/03/27 03:44:54;;;;;;;;;;;6.60;99.90;;;;;;4978719;28;20393;-73
2022/03/27 03:47:20;;;;;;;;;;;6.50;99.90;;;;;;4993628;28;19921;-73
2022/03/27 03:49:46;;;;;;;;;;;6.50;99.90;;;;;;4992889;28;19918;-73
2022/03/27 03:52:12;;;;;;;;;;;6.50;99.90;;;;;;5009643;28;19921;-73
2022/03/27 03:54:37;;;;;;;;;;;6.50;99.90;;;;;;5013203;28;19921;-73
2022/03/27 03:57:04;;;;;;;;;;;6.40;99.90;;;;;;4998351;28;19922;-74
2022/03/27 03:59:31;;;;;;;;;;;6.40;99.90;;;;;;5013058;28;19917;-75
2022/03/27 04:01:57;;;;;;;;;;;6.50;99.90;;;;;;4992984;28;20376;-75
2022/03/27 04:04:22;;;;;;;;;;;6.50;99.90;;;;;;5010032;28;19921;-74
2022/03/27 04:06:48;;;;;;;;;;;6.50;99.90;;;;;;5010176;28;19917;-74
2022/03/27 04:09:14;;;;;;;;;;;6.30;99.90;;;;;;4993214;28;19932;-74
2022/03/27 04:11:40;;;;;;;;;;;6.30;99.90;;;;;;4993212;28;19925;-74
2022/03/27 04:14:05;;;;;;;;;;;6.30;99.90;;;;;;4998881;28;20380;-74
2022/03/27 04:16:31;;;;;;;;;;;6.20;99.90;;;;;;5013040;28;19917;-75
2022/03/27 04:18:56;;;;;;;;;;;6.20;99.90;;;;;;4980222;28;19925;-73
2022/03/27 04:21:22;;;;;;;;;;;6.20;99.90;;;;;;4993841;28;19925;-74
2022/03/27 04:23:48;;;;;;;;;;;6.20;99.90;;;;;;5002759;28;19995;-73
2022/03/27 04:26:13;;;;;;;;;;;6.20;99.90;;;;;;5004822;28;19993;-73
2022/03/27 04:28:39;;;;;;;;;;;6.10;99.90;;;;;;5009632;28;20436;-74
2022/03/27 04:31:04;;;;;;;;;;;6.00;99.90;;;;;;5008888;28;20471;-74
2022/03/27 04:33:30;;;;;;;;;;;6.00;99.90;;;;;;4993332;28;19917;-73
2022/03/27 04:35:56;;;;;;;;;;;6.00;99.90;;;;;;5012706;28;19917;-74
2022/03/27 04:38:21;;;;;;;;;;;5.90;99.90;;;;;;5030466;28;20308;-74
2022/03/27 04:40:47;;;;;;;;;;;5.90;99.90;;;;;;5012871;28;19986;-74
2022/03/27 04:43:13;;;;;;;;;;;5.90;99.90;;;;;;5012370;28;19917;-74
2022/03/27 04:45:39;;;;;;;;;;;5.90;99.90;;;;;;5012969;28;19940;-73
2022/03/27 04:48:05;;;;;;;;;;;5.90;99.90;;;;;;5011931;28;19921;-73
2022/03/27 04:50:30;;;;;;;;;;;5.90;99.90;;;;;;5012595;28;19966;-73
2022/03/27 04:52:56;;;;;;;;;;;5.90;99.90;;;;;;5010145;28;20356;-73
2022/03/27 04:55:22;;;;;;;;;;;6.00;99.90;;;;;;5013370;28;19921;-73
2022/03/27 04:57:48;;;;;;;;;;;5.80;99.90;;;;;;5015776;28;20399;-73
2022/03/27 05:00:17;;;;;;;;;;;5.80;99.90;;;;;;5003209;28;20369;-73
2022/03/27 05:02:43;;;;;;;;;;;5.80;99.90;;;;;;4994885;28;19975;-74
2022/03/27 05:05:10;;;;;;;;;;;5.80;99.90;;;;;;5002678;28;19917;-74
2022/03/27 05:07:36;;;;;;;;;;;5.90;99.90;;;;;;5014037;28;20300;-73
2022/03/27 05:10:03;;;;;;;;;;;5.70;99.90;;;;;;5015750;28;19917;-73
2022/03/27 05:12:29;;;;;;;;;;;5.70;99.90;;;;;;5000419;28;20016;-73
2022/03/27 05:14:54;;;;;;;;;;;5.70;99.90;;;;;;4996795;28;20051;-73
2022/03/27 05:17:20;;;;;;;;;;;5.60;99.90;;;;;;5013079;28;19968;-73
2022/03/27 05:19:45;;;;;;;;;;;6.40;99.90;;;;;;4996600;28;19924;-73
2022/03/27 05:22:11;;;;;;;;;;;5.50;99.90;;;;;;4995960;28;20022;-73
2022/03/27 05:24:36;;;;;;;;;;;5.50;99.90;;;;;;5012020;28;19921;-73
2022/03/27 05:27:02;;;;;;;;;;;5.50;99.90;;;;;;5004546;28;19929;-74
2022/03/27 05:29:28;;;;;;;;;;;5.50;99.90;;;;;;5012423;28;20010;-74
2022/03/27 05:31:53;;;;;;;;;;;5.50;99.90;;;;;;4994136;28;20308;-73
2022/03/27 05:34:19;;;;;;;;;;;5.50;99.90;;;;;;5010065;28;19924;-74
2022/03/27 05:36:45;;;;;;;;;;;6.10;99.90;;;;;;4995356;28;20321;-74
2022/03/27 05:39:11;;;;;;;;;;;5.60;99.90;;;;;;5021021;28;20372;-73
2022/03/27 05:41:37;;;;;;;;;;;5.60;99.90;;;;;;5015948;28;20323;-74
2022/03/27 05:44:03;;;;;;;;;;;5.60;99.90;;;;;;5007443;28;19921;-74
2022/03/27 05:46:28;;;;;;;;;;;5.60;99.90;;;;;;5000644;28;19917;-73
2022/03/27 05:48:54;;;;;;;;;;;5.70;99.90;;;;;;5007085;28;20269;-73
2022/03/27 05:51:19;;;;;;;;;;;5.70;99.90;;;;;;5014312;28;19923;-73
2022/03/27 05:53:45;;;;;;;;;;;5.70;99.90;;;;;;5015378;28;19956;-74
2022/03/27 05:56:11;;;;;;;;;;;5.80;99.90;;;;;;5015115;28;19917;-74
2022/03/27 05:58:37;;;;;;;;;;;5.90;99.90;;;;;;5031764;28;19921;-74
2022/03/27 06:01:03;;;;;;;;;;;5.90;99.90;;;;;;5000877;28;19917;-74
2022/03/27 06:03:29;;;;;;;;;;;5.90;99.90;;;;;;4999991;28;20393;-74
2022/03/27 06:05:55;;;;;;;;;;;6.00;99.90;;;;;;4994355;28;19953;-75
2022/03/27 06:08:21;;;;;;;;;;;6.00;99.90;;;;;;5011717;28;20388;-74
2022/03/27 06:10:48;;;;;;;;;;;6.20;99.90;;;;;;4995814;28;20305;-73
2022/03/27 06:13:14;;;;;;;;;;;6.20;99.90;;;;;;4995419;28;19921;-74
2022/03/27 06:15:40;;;;;;;;;;;6.20;99.90;;;;;;4994423;28;19918;-74
2022/03/27 06:18:08;;;;;;;;;;;6.30;99.90;;;;;;5014927;28;19931;-74
2022/03/27 06:20:34;;;;;;;;;;;6.30;99.90;;;;;;5002226;28;20004;-73
2022/03/27 06:23:01;;;;;;;;;;;6.40;99.90;;;;;;5011777;28;20000;-73
2022/03/27 06:25:27;;;;;;;;;;;6.40;99.90;;;;;;5011005;28;19983;-74
2022/03/27 06:27:53;;;;;;;;;;;6.50;99.90;;;;;;5010165;28;19960;-74
2022/03/27 06:30:20;;;;;;;;;;;6.60;99.90;;;;;;5014553;28;20367;-74
2022/03/27 06:32:46;;;;;;;;;;;6.60;99.90;;;;;;5014924;28;20541;-74
2022/03/27 06:35:13;;;;;;;;;;;7.00;99.90;;;;;;5004237;28;19975;-74
2022/03/27 06:37:39;;;;;;;;;;;6.70;99.90;;;;;;4995283;28;20345;-74
2022/03/27 06:40:05;;;;;;;;;;;6.70;99.90;;;;;;5008788;28;19917;-74
2022/03/27 06:42:31;;;;;;;;;;;6.90;99.90;;;;;;4997230;28;19913;-73
2022/03/27 06:44:57;;;;;;;;;;;6.90;99.90;;;;;;5002789;28;19924;-74
2022/03/27 06:47:23;;;;;;;;;;;7.10;99.90;;;;;;5009142;28;19925;-74
2022/03/27 06:49:49;;;;;;;;;;;7.20;99.90;;;;;;5014293;28;19917;-74
2022/03/27 06:52:15;;;;;;;;;;;7.30;99.90;;;;;;5019011;28;20039;-74
2022/03/27 06:54:41;;;;;;;;;;;7.20;99.90;;;;;;5005024;28;20364;-73
2022/03/27 06:57:07;;;;;;;;;;;7.20;99.90;;;;;;5013881;28;20003;-73
2022/03/27 07:03:01;;;;;;;;;;;7.20;99.90;;;;;;4993617;28;20370;-74
2022/03/27 07:05:03;;;;;;;;;;;7.30;99.90;;;;;;5000784;28;19961;-74
2022/03/27 07:07:29;;;;;;;;;;;7.40;99.90;;;;;;4993937;28;20397;-74
2022/03/27 07:09:54;;;;;;;;;;;7.50;99.90;;;;;;5031253;28;19924;-73
2022/03/27 07:12:20;;;;;;;;;;;7.50;99.90;;;;;;5006543;28;19995;-73
2022/03/27 07:14:46;;;;;;;;;;;7.60;99.90;;;;;;5002037;28;19917;-73
2022/03/27 07:17:16;;;;;;;;;;;7.60;99.90;;;;;;5004995;28;19917;-74
2022/03/27 07:19:42;;;;;;;;;;;7.60;99.90;;;;;;4993992;28;19917;-74
2022/03/27 07:22:07;;;;;;;;;;;7.70;99.90;;;;;;5010724;28;19924;-74
2022/03/27 07:24:33;;;;;;;;;;;7.70;99.90;;;;;;5013698;28;19940;-73
2022/03/27 07:26:59;;;;;;;;;;;8.00;99.90;;;;;;4996375;28;19961;-74
2022/03/27 07:29:24;;;;;;;;;;;8.20;99.90;;;;;;4998605;28;19929;-75
2022/03/27 07:31:50;;;;;;;;;;;8.50;99.90;;;;;;5005538;28;19921;-73
2022/03/27 07:34:16;;;;;;;;;;;8.70;99.90;;;;;;5010053;28;19928;-73
2022/03/27 07:36:42;;;;;;;;;;;8.80;99.90;;;;;;4992838;28;20016;-72
2022/03/27 07:39:09;;;;;;;;;;;8.80;99.90;;;;;;5008003;28;20315;-74
2022/03/27 07:41:35;;;;;;;;;;;9.00;99.90;;;;;;4999150;28;19916;-73
2022/03/27 07:44:01;;;;;;;;;;;9.20;99.90;;;;;;5013421;28;20391;-73
2022/03/27 07:46:27;;;;;;;;;;;9.50;99.90;;;;;;5000703;28;20305;-73
2022/03/27 07:48:52;;;;;;;;;;;9.60;99.90;;;;;;5003147;28;19929;-73
2022/03/27 07:51:18;;;;;;;;;;;10.00;99.90;;;;;;5012352;28;19967;-73
2022/03/27 07:53:44;;;;;;;;;;;10.50;99.90;;;;;;5013414;28;20285;-74
2022/03/27 07:56:09;;;;;;;;;;;10.80;99.90;;;;;;5013308;28;20557;-72
2022/03/27 07:58:36;;;;;;;;;;;10.90;99.90;;;;;;5012538;28;19928;-72
2022/03/27 08:01:02;;;;;;;;;;;11.70;99.90;;;;;;5007668;28;20301;-74
2022/03/27 08:03:28;;;;;;;;;;;11.80;99.90;;;;;;5011371;28;19971;-74
2022/03/27 08:05:54;;;;;;;;;;;12.20;99.90;;;;;;4996882;28;19979;-74
2022/03/27 08:08:20;;;;;;;;;;;12.20;99.90;;;;;;5001710;28;19925;-72
2022/03/27 08:10:45;;;;;;;;;;;12.30;99.90;;;;;;4999058;28;19917;-73
2022/03/27 08:13:11;;;;;;;;;;;12.10;99.90;;;;;;5010721;28;19932;-73
2022/03/27 08:15:36;;;;;;;;;;;12.60;99.90;;;;;;4992413;28;20601;-73
2022/03/27 08:18:02;;;;;;;;;;;13.10;99.90;;;;;;4999551;28;19924;-73
2022/03/27 08:20:29;;;;;;;;;;;13.60;99.90;;;;;;4994542;28;19922;-74
2022/03/27 08:22:55;;;;;;;;;;;13.80;99.90;;;;;;4992892;28;19923;-73
2022/03/27 08:28:07;;;;;;;;;;;13.70;99.90;;;;;;4997742;28;19928;-73
2022/03/27 08:30:32;;;;;;;;;;;13.10;99.90;;;;;;4998854;28;19921;-74
2022/03/27 08:32:58;;;;;;;;;;;13.10;99.90;;;;;;5013714;28;19924;-73
2022/03/27 08:35:23;;;;;;;;;;;13.10;99.90;;;;;;5016205;28;19917;-73
2022/03/27 08:37:49;;;;;;;;;;;13.40;99.90;;;;;;5017904;28;20016;-71
2022/03/27 08:40:15;;;;;;;;;;;13.90;99.90;;;;;;4996970;28;19918;-72
2022/03/27 08:42:43;;;;;;;;;;;14.30;99.90;;;;;;5013214;28;20265;-72
2022/03/27 08:45:09;;;;;;;;;;;14.50;99.90;;;;;;5015874;28;20383;-72
2022/03/27 08:47:38;;;;;;;;;;;14.70;99.90;;;;;;5013695;28;19921;-72
2022/03/27 08:50:14;;;;;;;;;;;14.50;99.90;;;;;;5016875;28;19946;-71
2022/03/27 08:52:48;;;;;;;;;;;14.70;99.90;;;;;;5004362;28;19954;-72
2022/03/27 08:55:18;;;;;;;;;;;15.00;99.90;;;;;;5006657;28;19921;-72
2022/03/27 08:57:54;;;;;;;;;;;15.50;99.90;;;;;;5011049;28;19931;-72
2022/03/27 09:00:21;;;;;;;;;;;16.00;99.90;;;;;;5016645;28;20250;-72
2022/03/27 09:02:47;;;;;;;;;;;16.60;99.90;;;;;;5008285;28;20405;-72
2022/03/27 09:05:12;;;;;;;;;;;17.20;99.90;;;;;;5012922;28;19960;-72
2022/03/27 09:07:38;;;;;;;;;;;17.50;99.90;;;;;;5012322;28;19929;-73
2022/03/27 09:10:07;;;;;;;;;;;18.00;99.90;;;;;;5013533;28;20416;-73
2022/03/27 09:12:33;;;;;;;;;;;18.00;99.90;;;;;;5015929;28;19917;-72
2022/03/27 09:14:59;;;;;;;;;;;18.30;99.20;;;;;;5016033;28;19917;-73
2022/03/27 09:17:24;;;;;;;;;;;18.60;98.90;;;;;;5016433;28;19924;-72
2022/03/27 09:19:51;;;;;;;;;;;18.70;98.40;;;;;;5015516;28;19944;-73
2022/03/27 09:22:19;;;;;;;;;;;19.20;97.50;;;;;;4995745;28;19918;-72
2022/03/27 09:24:47;;;;;;;;;;;19.30;96.40;;;;;;5012157;28;20388;-73
2022/03/27 09:27:16;;;;;;;;;;;19.50;94.10;;;;;;5010635;28;20355;-73
2022/03/27 09:30:06;;;;;;;;;;;19.90;93.60;;;;;;4996016;28;19942;-73
2022/03/27 09:32:35;;;;;;;;;;;19.70;92.80;;;;;;4996293;28;20226;-73
2022/03/27 09:35:03;;;;;;;;;;;20.20;91.90;;;;;;5011652;28;19918;-72
2022/03/27 09:37:29;;;;;;;;;;;20.80;91.00;;;;;;5012185;28;20625;-73
2022/03/27 09:39:56;;;;;;;;;;;20.70;91.50;;;;;;5012482;28;19917;-72
2022/03/27 09:42:22;;;;;;;;;;;20.70;90.40;;;;;;5011000;28;19924;-72
2022/03/27 09:44:48;;;;;;;;;;;21.30;90.40;;;;;;5012167;28;20339;-72
2022/03/27 09:47:13;;;;;;;;;;;21.10;87.10;;;;;;5012095;28;19936;-72
2022/03/27 09:49:43;;;;;;;;;;;21.10;85.80;;;;;;5011910;28;19917;-72
2022/03/27 09:52:12;;;;;;;;;;;21.30;84.40;;;;;;5012144;28;19961;-73
2022/03/27 09:54:44;;;;;;;;;;;21.40;84.90;;;;;;4995371;28;19944;-72
2022/03/27 09:57:19;;;;;;;;;;;21.30;83.40;;;;;;5011879;28;19987;-72
2022/03/27 09:59:46;;;;;;;;;;;21.10;80.70;;;;;;4995044;28;20401;-72
2022/03/27 10:02:17;;;;;;;;;;;21.20;80.40;;;;;;5012021;28;20377;-71
2022/03/27 10:04:52;;;;;;;;;;;21.60;81.00;;;;;;4995508;28;20008;-72
2022/03/27 10:07:23;;;;;;;;;;;21.80;80.30;;;;;;4995261;28;19933;-73
2022/03/27 10:09:49;;;;;;;;;;;21.60;80.60;;;;;;5008906;28;19917;-73
2022/03/27 10:12:16;;;;;;;;;;;21.70;78.90;;;;;;5001619;28;19932;-73
2022/03/27 10:14:43;;;;;;;;;;;21.50;80.00;;;;;;5012692;28;19918;-73
2022/03/27 10:17:10;;;;;;;;;;;21.40;79.10;;;;;;5014941;28;19917;-73
2022/03/27 10:19:48;;;;;;;;;;;21.30;79.70;;;;;;5031186;28;19924;-74
2022/03/27 10:22:20;;;;;;;;;;;20.90;81.40;;;;;;5014817;28;19924;-73
2022/03/27 10:24:48;;;;;;;;;;;21.60;81.20;;;;;;5014158;28;19924;-72
2022/03/27 10:27:16;;;;;;;;;;;21.50;79.30;;;;;;5014323;28;19917;-72
2022/03/27 10:29:42;;;;;;;;;;;22.00;79.90;;;;;;5001725;28;19960;-72
2022/03/27 10:32:09;;;;;;;;;;;22.00;79.10;;;;;;5014780;28;19960;-74
2022/03/27 10:34:37;;;;;;;;;;;22.20;76.00;;;;;;5004263;28;20529;-73
2022/03/27 10:37:21;;;;;;;;;;;22.70;76.10;;;;;;4995478;28;20408;-72
2022/03/27 10:39:57;;;;;;;;;;;22.30;75.90;;;;;;5009847;28;19999;-71
2022/03/27 10:42:42;;;;;;;;;;;21.80;75.90;;;;;;5014713;28;19917;-70
2022/03/27 10:45:07;;;;;;;;;;;22.20;77.10;;;;;;5014185;28;19960;-71
2022/03/27 10:47:33;;;;;;;;;;;22.20;75.00;;;;;;5014287;28;20014;-70
2022/03/27 10:50:02;;;;;;;;;;;22.10;74.20;;;;;;5014162;28;19917;-71
2022/03/27 10:52:31;;;;;;;;;;;22.30;71.40;;;;;;5011623;28;20008;-72
2022/03/27 10:55:01;;;;;;;;;;;22.60;74.30;;;;;;5011484;28;19921;-71
2022/03/27 10:57:28;;;;;;;;;;;22.60;73.30;;;;;;5012695;28;19932;-71
2022/03/27 10:59:54;;;;;;;;;;;23.10;73.00;;;;;;4992873;28;19922;-71
2022/03/27 11:02:39;;;;;;;;;;;23.20;71.80;;;;;;5011255;28;19924;-70
2022/03/27 11:05:05;;;;;;;;;;;22.60;69.10;;;;;;5000098;28;19920;-72
2022/03/27 11:07:31;;;;;;;;;;;22.90;68.10;;;;;;5005211;28;19979;-71
2022/03/27 11:09:56;;;;;;;;;;;22.50;66.40;;;;;;5010622;28;20304;-71
2022/03/27 11:12:22;;;;;;;;;;;22.90;66.40;;;;;;5025433;28;19917;-72
2022/03/27 11:14:51;;;;;;;;;;;22.90;66.60;;;;;;5003885;28;20369;-71
2022/03/27 11:17:28;;;;;;;;;;;22.30;64.20;;;;;;5001110;28;19924;-72
2022/03/27 11:19:54;;;;;;;;;;;22.00;65.90;;;;;;4992573;28;20368;-75
2022/03/27 11:22:38;;;;;;;;;;;22.80;65.20;;;;;;5023586;28;19917;-76
2022/03/27 11:25:22;;;;;;;;;;;22.30;64.70;;;;;;5003243;28;19964;-77
2022/03/27 11:27:57;;;;;;;;;;;22.00;63.70;;;;;;5003513;28;19922;-76
2022/03/27 11:30:23;;;;;;;;;;;22.00;65.10;;;;;;4999471;28;19917;-76
2022/03/27 11:33:08;;;;;;;;;;;22.30;65.50;;;;;;4997927;28;19917;-79
2022/03/27 11:35:33;;;;;;;;;;;22.90;65.70;;;;;;5009009;28;20361;-77
2022/03/27 11:38:18;;;;;;;;;;;22.70;65.20;;;;;;5012881;28;19925;-77
2022/03/27 11:40:44;;;;;;;;;;;23.10;63.50;;;;;;5008378;28;20211;-77
2022/03/27 11:43:29;;;;;;;;;;;23.30;63.50;;;;;;5002496;28;19924;-76
2022/03/27 11:45:56;;;;;;;;;;;23.50;63.50;;;;;;4998458;28;20361;-78
2022/03/27 11:48:21;;;;;;;;;;;23.10;63.70;;;;;;5010006;28;20031;-80
2022/03/27 11:50:47;;;;;;;;;;;22.90;61.90;;;;;;5007641;28;19964;-77
2022/03/27 11:53:13;;;;;;;;;;;22.20;61.10;;;;;;5010064;28;19917;-77
2022/03/27 11:55:39;;;;;;;;;;;22.50;63.00;;;;;;5013259;28;19932;-75
2022/03/27 11:58:05;;;;;;;;;;;22.20;61.30;;;;;;4993063;28;19963;-76
2022/03/27 12:00:41;;;;;;;;;;;22.50;59.50;;;;;;5000730;28;19925;-76
2022/03/27 12:03:24;;;;;;;;;;;21.80;60.60;;;;;;5010780;28;19985;-76
2022/03/27 12:05:50;;;;;;;;;;;21.90;60.50;;;;;;4992123;28;20389;-77
2022/03/27 12:08:19;;;;;;;;;;;22.10;60.50;;;;;;5002432;28;19953;-78
2022/03/27 12:10:45;;;;;;;;;;;22.50;59.50;;;;;;4996099;28;19924;-77
2022/03/27 12:13:14;;;;;;;;;;;22.20;59.90;;;;;;4996993;28;20318;-76
2022/03/27 12:15:46;;;;;;;;;;;22.50;61.00;;;;;;5011480;28;20004;-76
2022/03/27 12:18:13;;;;;;;;;;;22.50;61.10;;;;;;5010266;28;19971;-76
2022/03/27 12:20:46;;;;;;;;;;;22.40;61.80;;;;;;5024550;28;19952;-76
2022/03/27 12:23:17;;;;;;;;;;;23.00;61.00;;;;;;5000456;28;19922;-77
2022/03/27 12:25:43;;;;;;;;;;;23.10;60.80;;;;;;5006144;28;19931;-77
2022/03/27 12:30:53;;;;;;;;;;;23.50;60.20;;;;;;4993247;28;19976;-77
2022/03/27 12:33:27;;;;;;;;;;;23.60;60.90;;;;;;4991803;28;20377;-77
2022/03/27 12:36:13;;;;;;;;;;;23.00;61.10;;;;;;5008209;28;20361;-77
2022/03/27 12:38:39;;;;;;;;;;;23.30;60.40;;;;;;5001494;28;19924;-77
2022/03/27 12:41:08;;;;;;;;;;;23.50;59.70;;;;;;5007490;28;19996;-77
2022/03/27 12:43:33;;;;;;;;;;;22.90;60.30;;;;;;5005976;28;19917;-77
2022/03/27 12:45:59;;;;;;;;;;;22.60;61.30;;;;;;5005552;28;20423;-77
2022/03/27 12:48:27;;;;;;;;;;;22.50;60.90;;;;;;4992835;28;20038;-77
2022/03/27 12:50:53;;;;;;;;;;;22.70;61.80;;;;;;5005974;28;20292;-77
2022/03/27 12:53:20;;;;;;;;;;;21.90;62.40;;;;;;5007733;28;19924;-77
2022/03/27 12:55:46;;;;;;;;;;;22.10;62.20;;;;;;5013071;28;20344;-76
2022/03/27 12:58:12;;;;;;;;;;;22.70;62.10;;;;;;5006856;28;19924;-77
2022/03/27 13:00:40;;;;;;;;;;;22.50;61.50;;;;;;4995607;28;20357;-77
2022/03/27 13:03:17;;;;;;;;;;;21.70;62.50;;;;;;4995915;28;19970;-77
2022/03/27 13:05:58;;;;;;;;;;;21.70;62.20;;;;;;4993980;28;19941;-80
2022/03/27 13:08:34;;;;;;;;;;;21.60;62.40;;;;;;5012782;28;19928;-79
2022/03/27 13:11:13;;;;;;;;;;;20.90;62.50;;;;;;5005240;28;19971;-77
2022/03/27 13:13:40;;;;;;;;;;;22.00;62.30;;;;;;5005704;28;19923;-79
2022/03/27 13:16:27;;;;;;;;;;;21.80;62.20;;;;;;5004115;28;19957;-78
2022/03/27 13:19:06;;;;;;;;;;;21.90;62.40;;;;;;5005995;28;20042;-79
2022/03/27 13:21:32;;;;;;;;;;;22.10;64.60;;;;;;5010806;28;19924;-78
2022/03/27 13:23:58;;;;;;;;;;;22.00;63.70;;;;;;5010521;28;19917;-80
2022/03/27 13:26:24;;;;;;;;;;;21.90;63.80;;;;;;5001091;28;20292;-81
2022/03/27 13:28:49;;;;;;;;;;;22.20;64.60;;;;;;5001422;28;19921;-81
2022/03/27 13:31:15;;;;;;;;;;;21.80;63.40;;;;;;4999363;28;19924;-81
2022/03/27 13:33:41;;;;;;;;;;;21.50;64.80;;;;;;5008540;28;19917;-79
2022/03/27 13:36:07;;;;;;;;;;;21.20;65.20;;;;;;5014130;28;20377;-78
2022/03/27 13:38:32;;;;;;;;;;;20.50;66.00;;;;;;5002130;28;19956;-80
2022/03/27 13:43:42;;;;;;;;;;;19.20;69.20;;;;;;5005827;28;19917;-80
2022/03/27 13:46:09;;;;;;;;;;;18.70;70.20;;;;;;5000603;28;20396;-80
2022/03/27 13:48:35;;;;;;;;;;;18.70;71.40;;;;;;5003662;28;19921;-81
2022/03/27 13:51:00;;;;;;;;;;;18.70;71.90;;;;;;5013049;28;19916;-81
2022/03/27 13:53:26;;;;;;;;;;;18.40;73.90;;;;;;5015885;28;20383;-80
2022/03/27 13:55:52;;;;;;;;;;;17.90;77.30;;;;;;5001425;28;19917;-80
2022/03/27 13:58:18;;;;;;;;;;;18.20;75.60;;;;;;5007887;28;20296;-80
2022/03/27 14:00:43;;;;;;;;;;;17.70;76.00;;;;;;4982746;28;19927;-81
2022/03/27 14:03:09;;;;;;;;;;;17.80;74.60;;;;;;5013965;28;19935;-80
2022/03/27 14:05:34;;;;;;;;;;;17.50;76.20;;;;;;5008199;28;19923;-80
2022/03/27 14:08:01;;;;;;;;;;;17.70;79.40;;;;;;4997884;28;19928;-80
2022/03/27 14:10:27;;;;;;;;;;;18.00;81.20;;;;;;5003222;28;19924;-81
2022/03/27 14:12:53;;;;;;;;;;;18.00;82.40;;;;;;5003266;28;20377;-81
2022/03/27 14:15:18;;;;;;;;;;;18.20;78.80;;;;;;5000545;28;20008;-81
2022/03/27 14:17:48;;;;;;;;;;;17.90;80.70;;;;;;5012976;28;19924;-80
2022/03/27 14:20:17;;;;;;;;;;;17.50;83.00;;;;;;5005383;28;20402;-81
2022/03/27 14:22:43;;;;;;;;;;;17.20;84.40;;;;;;5003161;28;19936;-80
2022/03/27 14:25:10;;;;;;;;;;;17.20;84.40;;;;;;5014262;28;19924;-80
2022/03/27 14:27:36;;;;;;;;;;;17.30;84.90;;;;;;5002929;28;19917;-80
2022/03/27 14:30:02;;;;;;;;;;;17.50;84.50;;;;;;5007235;28;19972;-80
2022/03/27 14:32:27;;;;;;;;;;;17.40;83.70;;;;;;5007798;28;19928;-80
2022/03/27 14:34:55;;;;;;;;;;;17.10;83.10;;;;;;5005338;28;20463;-80
2022/03/27 14:37:24;;;;;;;;;;;16.70;84.70;;;;;;5002582;28;19917;-80